createdAt,value
2018-06-24T00:01:13.484Z,12.00
2018-06-24T00:03:42.181Z,12.00
2018-06-24T00:08:39.487Z,12.00
2018-06-24T00:11:07.962Z,11.90
2018-06-24T00:13:36.970Z,11.90
2018-06-24T00:16:05.817Z,11.90
2018-06-24T00:18:34.266Z,11.90
2018-06-24T00:21:04.842Z,11.90
2018-06-24T00:23:33.286Z,12.00
2018-06-24T00:26:02.037Z,12.00
2018-06-24T00:30:59.068Z,12.00
2018-06-24T00:33:27.540Z,12.00
2018-06-24T00:35:56.069Z,12.00
2018-06-24T00:38:24.502Z,12.00
2018-06-24T00:40:53.003Z,12.00
2018-06-24T00:43:21.501Z,12.00
2018-06-24T00:45:49.912Z,12.20
2018-06-24T00:48:18.777Z,12.30
2018-06-24T00:50:47.284Z,12.30
2018-06-24T00:53:18.716Z,12.30
2018-06-24T00:55:47.786Z,12.30
2018-06-24T00:58:16.146Z,12.20
2018-06-24T01:00:44.498Z,12.20
2018-06-24T01:03:12.999Z,12.10
2018-06-24T01:05:41.425Z,12.10
2018-06-24T01:08:09.987Z,12.10
2018-06-24T01:10:39.875Z,12.10
2018-06-24T01:13:08.353Z,12.10
2018-06-24T01:15:36.797Z,12.10
2018-06-24T01:18:05.215Z,12.00
2018-06-24T01:20:33.594Z,12.00
2018-06-24T01:23:01.991Z,11.90
2018-06-24T01:25:31.477Z,11.90
2018-06-24T01:27:59.843Z,11.80
2018-06-24T01:30:28.458Z,11.70
2018-06-24T01:32:56.852Z,11.70
2018-06-24T01:35:25.246Z,11.80
2018-06-24T01:37:53.656Z,11.80
2018-06-24T01:40:23.394Z,11.80
2018-06-24T01:42:51.872Z,11.70
2018-06-24T01:45:20.304Z,11.70
2018-06-24T01:47:48.671Z,11.70
2018-06-24T01:50:17.174Z,11.60
2018-06-24T01:52:45.612Z,11.60
2018-06-24T01:55:14.378Z,11.50
2018-06-24T01:57:42.973Z,11.50
2018-06-24T02:00:11.410Z,11.40
2018-06-24T02:02:40.045Z,11.50
2018-06-24T02:05:08.588Z,11.50
2018-06-24T02:07:37.032Z,11.50
2018-06-24T02:10:05.411Z,11.50
2018-06-24T02:12:33.715Z,11.50
2018-06-24T02:15:02.227Z,11.40
2018-06-24T02:17:30.621Z,11.40
2018-06-24T02:19:59.743Z,11.40
2018-06-24T02:22:28.126Z,11.40
2018-06-24T02:24:56.561Z,11.30
2018-06-24T02:27:25.169Z,11.30
2018-06-24T02:29:53.517Z,11.20
2018-06-24T02:32:22.540Z,11.10
2018-06-24T02:34:50.939Z,11.00
2018-06-24T02:37:19.349Z,11.00
2018-06-24T02:39:47.966Z,11.00
2018-06-24T02:42:16.476Z,11.00
2018-06-24T02:44:44.888Z,11.10
2018-06-24T02:47:13.499Z,11.20
2018-06-24T02:49:41.897Z,11.20
2018-06-24T02:52:10.278Z,11.30
2018-06-24T02:54:38.729Z,11.40
2018-06-24T02:57:07.384Z,11.50
2018-06-24T02:59:35.801Z,11.60
2018-06-24T03:02:04.186Z,11.60
2018-06-24T03:04:32.651Z,11.60
2018-06-24T03:07:01.180Z,11.60
2018-06-24T03:09:29.674Z,11.60
2018-06-24T03:11:58.150Z,11.60
2018-06-24T03:14:26.536Z,11.60
2018-06-24T03:16:55.180Z,11.60
2018-06-24T03:19:23.580Z,11.70
2018-06-24T03:21:52.062Z,11.70
2018-06-24T03:24:20.704Z,11.80
2018-06-24T03:26:49.149Z,11.90
2018-06-24T03:29:18.185Z,11.90
2018-06-24T03:31:46.749Z,11.90
2018-06-24T03:34:15.519Z,11.90
2018-06-24T03:36:43.921Z,11.90
2018-06-24T03:39:12.571Z,11.90
2018-06-24T03:41:40.994Z,11.90
2018-06-24T03:44:09.347Z,11.90
2018-06-24T03:46:38.056Z,11.90
2018-06-24T03:49:06.524Z,11.90
2018-06-24T03:51:34.847Z,11.90
2018-06-24T03:54:03.268Z,11.90
2018-06-24T03:56:31.668Z,11.90
2018-06-24T03:59:00.319Z,12.00
2018-06-24T04:01:29.453Z,12.00
2018-06-24T04:03:58.035Z,12.00
2018-06-24T04:06:26.599Z,12.00
2018-06-24T04:08:55.074Z,12.10
2018-06-24T04:11:23.478Z,12.10
2018-06-24T04:13:52.959Z,12.20
2018-06-24T04:16:21.523Z,12.30
2018-06-24T04:18:50.010Z,12.30
2018-06-24T04:21:19.884Z,12.40
2018-06-24T04:23:48.288Z,12.50
2018-06-24T04:26:16.783Z,12.50
2018-06-24T04:28:45.308Z,12.60
2018-06-24T04:33:41.843Z,12.90
2018-06-24T04:36:10.341Z,13.00
2018-06-24T04:41:06.918Z,13.20
2018-06-24T04:43:35.613Z,13.30
2018-06-24T04:46:04.078Z,13.30
2018-06-24T04:48:32.608Z,13.30
2018-06-24T04:51:01.025Z,13.40
2018-06-24T04:53:29.513Z,13.40
2018-06-24T04:55:57.977Z,13.40
2018-06-24T04:58:26.369Z,13.50
2018-06-24T05:00:54.748Z,13.40
2018-06-24T05:03:23.397Z,13.40
2018-06-24T05:05:51.922Z,13.40
2018-06-24T05:08:20.370Z,13.50
2018-06-24T05:10:48.821Z,13.50
2018-06-24T05:13:17.252Z,13.60
2018-06-24T05:15:45.843Z,13.70
2018-06-24T05:18:14.207Z,13.70
2018-06-24T05:20:42.658Z,13.80
2018-06-24T05:23:11.093Z,13.90
2018-06-24T05:25:39.619Z,13.90
2018-06-24T05:28:08.212Z,13.90
2018-06-24T05:30:36.644Z,14.00
2018-06-24T05:33:05.072Z,14.10
2018-06-24T05:35:33.438Z,14.20
2018-06-24T05:38:02.621Z,14.30
2018-06-24T05:40:31.268Z,14.40
2018-06-24T05:42:59.670Z,14.40
2018-06-24T05:45:28.172Z,14.40
2018-06-24T05:47:56.661Z,14.30
2018-06-24T05:50:25.140Z,14.30
2018-06-24T05:52:53.606Z,14.40
2018-06-24T05:55:21.956Z,14.50
2018-06-24T05:57:50.392Z,14.50
2018-06-24T06:00:19.539Z,14.50
2018-06-24T06:02:48.074Z,14.50
2018-06-24T06:05:16.525Z,14.60
2018-06-24T06:07:45.242Z,14.70
2018-06-24T06:10:13.747Z,14.70
2018-06-24T06:12:42.153Z,14.70
2018-06-24T06:15:10.823Z,14.80
2018-06-24T06:17:39.245Z,15.10
2018-06-24T06:20:08.566Z,15.40
2018-06-24T06:22:37.042Z,15.60
2018-06-24T06:25:05.970Z,15.60
2018-06-24T06:27:35.223Z,15.50
2018-06-24T06:30:04.122Z,15.40
2018-06-24T06:32:33.097Z,15.50
2018-06-24T06:35:01.478Z,15.50
2018-06-24T06:37:29.880Z,15.40
2018-06-24T06:39:58.318Z,15.40
2018-06-24T06:42:27.807Z,15.40
2018-06-24T06:44:56.157Z,15.40
2018-06-24T06:47:24.509Z,15.50
2018-06-24T06:49:53.032Z,15.40
2018-06-24T06:52:21.462Z,15.40
2018-06-24T06:54:49.905Z,15.20
2018-06-24T06:57:19.072Z,15.10
2018-06-24T06:59:47.717Z,15.20
2018-06-24T07:02:16.574Z,15.40
2018-06-24T07:04:45.026Z,15.40
2018-06-24T07:07:13.556Z,15.00
2018-06-24T07:09:41.928Z,15.10
2018-06-24T07:12:10.445Z,15.40
2018-06-24T07:14:38.924Z,15.40
2018-06-24T07:17:07.366Z,15.50
2018-06-24T07:19:35.731Z,15.60
2018-06-24T07:22:04.228Z,15.60
2018-06-24T07:24:32.728Z,15.60
2018-06-24T07:27:01.298Z,15.50
2018-06-24T07:29:30.092Z,15.30
2018-06-24T07:31:58.559Z,15.30
2018-06-24T07:34:27.055Z,15.50
2018-06-24T07:36:55.489Z,15.50
2018-06-24T07:39:24.829Z,15.60
2018-06-24T07:41:53.441Z,15.90
2018-06-24T07:44:22.192Z,15.90
2018-06-24T07:46:50.935Z,15.90
2018-06-24T07:51:47.516Z,16.00
2018-06-24T07:54:15.999Z,15.90
2018-06-24T07:56:44.698Z,15.80
2018-06-24T07:59:13.129Z,15.30
2018-06-24T08:01:41.689Z,15.50
2018-06-24T08:04:10.164Z,15.50
2018-06-24T08:06:39.586Z,15.90
2018-06-24T08:09:10.136Z,16.00
2018-06-24T08:11:39.682Z,16.10
2018-06-24T08:14:08.150Z,16.20
2018-06-24T08:16:36.637Z,16.50
2018-06-24T08:19:05.794Z,16.90
2018-06-24T08:21:34.227Z,17.10
2018-06-24T08:24:02.803Z,17.20
2018-06-24T08:26:31.588Z,17.60
2018-06-24T08:29:00.057Z,17.80
2018-06-24T08:31:28.845Z,18.00
2018-06-24T08:33:57.223Z,18.00
2018-06-24T08:36:26.253Z,18.30
2018-06-24T08:38:54.806Z,18.80
2018-06-24T08:41:23.444Z,19.20
2018-06-24T08:43:52.855Z,19.10
2018-06-24T08:46:21.554Z,19.00
2018-06-24T08:48:49.924Z,18.70
2018-06-24T08:51:18.460Z,18.50
2018-06-24T08:53:46.949Z,18.70
2018-06-24T08:56:15.365Z,18.30
2018-06-24T08:58:44.065Z,18.40
2018-06-24T09:01:12.855Z,18.20
2018-06-24T09:03:41.492Z,17.80
2018-06-24T09:06:10.357Z,17.50
2018-06-24T09:08:39.587Z,17.20
2018-06-24T09:11:08.207Z,16.50
2018-06-24T09:13:37.487Z,16.70
2018-06-24T09:16:06.247Z,17.00
2018-06-24T09:18:35.990Z,17.10
2018-06-24T09:21:04.392Z,17.10
2018-06-24T09:23:32.861Z,17.30
2018-06-24T09:26:01.435Z,17.50
2018-06-24T09:28:30.601Z,17.80
2018-06-24T09:30:59.217Z,17.80
2018-06-24T09:33:28.151Z,17.70
2018-06-24T09:35:57.014Z,17.40
2018-06-24T09:38:25.716Z,17.10
2018-06-24T09:40:54.801Z,17.30
2018-06-24T09:45:51.930Z,17.80
2018-06-24T09:48:20.940Z,17.70
2018-06-24T09:50:50.422Z,17.40
2018-06-24T09:53:18.851Z,17.50
2018-06-24T09:55:47.829Z,17.50
2018-06-24T09:58:16.183Z,17.80
2018-06-24T10:00:46.463Z,18.10
2018-06-24T10:03:14.977Z,18.00
2018-06-24T10:05:43.490Z,18.00
2018-06-24T10:08:12.354Z,18.00
2018-06-24T10:10:41.322Z,18.10
2018-06-24T10:13:09.756Z,18.00
2018-06-24T10:15:38.246Z,17.70
2018-06-24T10:20:36.371Z,16.80
2018-06-24T10:23:05.108Z,16.80
2018-06-24T10:25:34.682Z,17.00
2018-06-24T10:28:05.397Z,17.10
2018-06-24T10:30:35.399Z,17.10
2018-06-24T10:33:04.674Z,16.90
2018-06-24T10:35:34.487Z,16.90
2018-06-24T10:38:03.692Z,16.80
2018-06-24T10:40:32.444Z,17.10
2018-06-24T10:43:05.212Z,17.20
2018-06-24T10:45:34.772Z,17.30
2018-06-24T10:48:05.095Z,17.60
2018-06-24T10:50:34.113Z,17.70
2018-06-24T10:53:02.736Z,17.50
2018-06-24T10:55:31.207Z,17.60
2018-06-24T10:57:59.708Z,17.40
2018-06-24T11:00:34.003Z,17.60
2018-06-24T11:03:04.848Z,17.40
2018-06-24T11:05:34.211Z,17.40
2018-06-24T11:08:02.698Z,17.80
2018-06-24T11:10:32.220Z,17.90
2018-06-24T11:13:00.866Z,17.40
2018-06-24T11:15:29.465Z,17.90
2018-06-24T11:17:57.826Z,18.10
2018-06-24T11:20:26.358Z,18.40
2018-06-24T11:22:55.088Z,18.60
2018-06-24T11:25:23.550Z,18.80
2018-06-24T11:27:51.921Z,18.90
2018-06-24T11:30:20.552Z,18.80
2018-06-24T11:32:49.921Z,18.80
2018-06-24T11:35:18.359Z,18.30
2018-06-24T11:37:47.125Z,18.00
2018-06-24T11:40:15.651Z,17.60
2018-06-24T11:42:44.197Z,17.20
2018-06-24T11:47:40.731Z,16.80
2018-06-24T11:50:10.010Z,16.40
2018-06-24T11:52:39.641Z,16.70
2018-06-24T11:55:10.292Z,16.70
2018-06-24T11:57:38.756Z,16.70
2018-06-24T12:00:07.546Z,16.50
2018-06-24T12:02:36.369Z,16.50
2018-06-24T12:05:05.102Z,16.60
2018-06-24T12:10:02.218Z,16.70
2018-06-24T12:12:30.653Z,16.70
2018-06-24T12:14:59.393Z,16.70
2018-06-24T12:17:29.454Z,16.80
2018-06-24T12:19:57.788Z,17.20
2018-06-24T12:22:26.196Z,17.30
2018-06-24T12:24:54.657Z,17.50
2018-06-24T12:27:23.121Z,17.50
2018-06-24T12:29:52.209Z,17.70
2018-06-24T12:32:22.572Z,17.90
2018-06-24T12:34:50.907Z,17.60
2018-06-24T12:37:20.243Z,17.50
2018-06-24T12:42:26.584Z,17.20
2018-06-24T12:44:57.377Z,17.20
2018-06-24T12:47:26.052Z,17.10
2018-06-24T12:49:55.178Z,17.20
2018-06-24T12:52:23.854Z,17.40
2018-06-24T12:54:54.746Z,17.40
2018-06-24T12:57:23.621Z,17.30
2018-06-24T12:59:53.807Z,17.40
2018-06-24T13:02:22.238Z,17.30
2018-06-24T13:04:50.729Z,17.30
2018-06-24T13:07:19.544Z,17.40
2018-06-24T13:09:47.977Z,17.30
2018-06-24T13:12:16.600Z,17.20
2018-06-24T13:17:13.718Z,17.20
2018-06-24T13:19:42.037Z,17.10
2018-06-24T13:22:10.419Z,17.20
2018-06-24T13:24:38.902Z,17.20
2018-06-24T13:27:08.147Z,17.20
2018-06-24T13:29:36.519Z,17.00
2018-06-24T13:32:05.315Z,17.00
2018-06-24T13:34:33.791Z,16.80
2018-06-24T13:39:36.013Z,16.60
2018-06-24T13:42:05.036Z,16.80
2018-06-24T13:44:33.398Z,16.90
2018-06-24T13:47:02.566Z,17.00
2018-06-24T13:52:00.125Z,16.90
2018-06-24T13:54:29.570Z,16.80
2018-06-24T13:56:58.250Z,16.70
2018-06-24T13:59:27.324Z,16.90
2018-06-24T14:01:56.526Z,16.90
2018-06-24T14:04:24.931Z,16.90
2018-06-24T14:06:55.453Z,17.00
2018-06-24T14:09:24.016Z,16.90
2018-06-24T14:11:52.491Z,16.90
2018-06-24T14:14:20.898Z,16.90
2018-06-24T14:16:49.689Z,16.90
2018-06-24T14:19:18.117Z,16.80
2018-06-24T14:21:46.629Z,16.70
2018-06-24T14:24:15.379Z,16.70
2018-06-24T14:26:43.796Z,16.70
2018-06-24T14:29:12.896Z,16.70
2018-06-24T14:31:41.619Z,16.70
2018-06-24T14:34:10.189Z,16.80
2018-06-24T14:36:39.085Z,16.80
2018-06-24T14:39:09.809Z,17.00
2018-06-24T14:41:39.159Z,17.00
2018-06-24T14:44:07.926Z,16.90
2018-06-24T14:46:36.409Z,16.80
2018-06-24T14:49:06.141Z,16.80
2018-06-24T14:51:34.913Z,16.80
2018-06-24T14:54:03.271Z,16.90
2018-06-24T14:56:31.733Z,16.90
2018-06-24T14:59:00.564Z,17.10
2018-06-24T15:01:29.039Z,17.10
2018-06-24T15:03:57.464Z,16.90
2018-06-24T15:06:25.805Z,16.80
2018-06-24T15:08:54.233Z,16.90
2018-06-24T15:13:51.001Z,16.60
2018-06-24T15:16:19.712Z,16.70
2018-06-24T15:18:48.116Z,16.80
2018-06-24T15:21:17.484Z,17.00
2018-06-24T15:23:45.820Z,16.90
2018-06-24T15:26:14.372Z,16.80
2018-06-24T15:28:42.767Z,16.80
2018-06-24T15:31:12.731Z,16.70
2018-06-24T15:33:41.467Z,16.40
2018-06-24T15:36:09.941Z,16.20
2018-06-24T15:38:39.718Z,16.10
2018-06-24T15:41:08.547Z,16.10
2018-06-24T15:43:37.629Z,16.00
2018-06-24T15:46:06.329Z,16.00
2018-06-24T15:48:34.715Z,15.90
2018-06-24T15:51:03.623Z,15.70
2018-06-24T15:53:33.206Z,15.60
2018-06-24T15:56:02.035Z,15.40
2018-06-24T16:00:59.725Z,15.20
2018-06-24T16:03:28.299Z,15.30
2018-06-24T16:05:56.862Z,15.40
2018-06-24T16:08:26.301Z,15.50
2018-06-24T16:10:55.434Z,15.60
2018-06-24T16:13:24.292Z,15.70
2018-06-24T16:15:53.522Z,15.70
2018-06-24T16:18:22.967Z,15.80
2018-06-24T16:20:52.035Z,15.90
2018-06-24T16:23:21.010Z,16.00
2018-06-24T16:25:50.398Z,16.10
2018-06-24T16:28:18.924Z,16.20
2018-06-24T16:30:48.264Z,16.20
2018-06-24T16:33:16.926Z,16.20
2018-06-24T16:35:45.667Z,16.10
2018-06-24T16:38:14.009Z,16.10
2018-06-24T16:40:42.480Z,16.00
2018-06-24T16:43:11.253Z,16.00
2018-06-24T16:45:40.029Z,16.00
2018-06-24T16:48:08.492Z,16.10
2018-06-24T16:50:37.104Z,16.30
2018-06-24T16:55:33.957Z,16.20
2018-06-24T17:00:33.273Z,16.40
2018-06-24T17:03:02.968Z,16.40
2018-06-24T17:05:31.912Z,16.30
2018-06-24T17:08:01.018Z,16.30
2018-06-24T17:10:30.706Z,16.20
2018-06-24T17:13:01.165Z,16.20
2018-06-24T17:15:29.756Z,16.10
2018-06-24T17:17:59.828Z,16.00
2018-06-24T17:20:28.550Z,16.00
2018-06-24T17:25:25.852Z,15.90
2018-06-24T17:27:54.809Z,15.90
2018-06-24T17:30:23.965Z,16.00
2018-06-24T17:32:54.950Z,15.90
2018-06-24T17:35:24.684Z,15.90
2018-06-24T17:37:53.834Z,15.80
2018-06-24T17:40:23.976Z,15.70
2018-06-24T17:42:52.735Z,15.60
2018-06-24T17:45:21.756Z,15.50
2018-06-24T17:47:50.705Z,15.50
2018-06-24T17:50:19.200Z,15.30
2018-06-24T17:52:47.731Z,15.20
2018-06-24T17:55:17.693Z,15.20
2018-06-24T18:00:15.741Z,15.20
2018-06-24T18:02:44.260Z,15.20
2018-06-24T18:05:13.102Z,15.20
2018-06-24T18:07:42.530Z,15.30
2018-06-24T18:10:12.132Z,15.30
2018-06-24T18:12:40.876Z,15.30
2018-06-24T18:15:14.116Z,15.30
2018-06-24T18:17:43.609Z,15.30
2018-06-24T18:20:11.947Z,15.00
2018-06-24T18:25:08.986Z,15.00
2018-06-24T18:27:38.652Z,15.00
2018-06-24T18:30:08.117Z,14.90
2018-06-24T18:32:38.564Z,14.80
2018-06-24T18:35:10.160Z,14.80
2018-06-24T18:37:39.621Z,14.70
2018-06-24T18:40:09.310Z,14.70
2018-06-24T18:42:39.946Z,14.70
2018-06-24T18:45:11.301Z,14.60
2018-06-24T18:47:39.911Z,14.60
2018-06-24T18:50:08.528Z,14.60
2018-06-24T18:52:38.041Z,14.50
2018-06-24T18:55:06.471Z,14.60
2018-06-24T18:57:35.873Z,14.60
2018-06-24T19:00:07.459Z,14.60
2018-06-24T19:02:36.291Z,14.60
2018-06-24T19:05:05.193Z,14.70
2018-06-24T19:07:34.069Z,14.70
2018-06-24T19:10:02.926Z,14.70
2018-06-24T19:12:31.566Z,14.70
2018-06-24T19:15:02.200Z,14.70
2018-06-24T19:17:32.671Z,14.70
2018-06-24T19:20:02.036Z,14.70
2018-06-24T19:22:31.294Z,14.70
2018-06-24T19:25:05.768Z,14.60
2018-06-24T19:27:35.750Z,14.60
2018-06-24T19:30:06.293Z,14.60
2018-06-24T19:32:36.212Z,14.60
2018-06-24T19:35:05.851Z,14.50
2018-06-24T19:37:35.298Z,14.60
2018-06-24T19:40:04.171Z,14.50
2018-06-24T19:42:35.445Z,14.60
2018-06-24T19:45:05.509Z,14.60
2018-06-24T19:47:34.095Z,14.60
2018-06-24T19:50:03.201Z,14.60
2018-06-24T19:52:32.285Z,14.60
2018-06-24T19:55:00.840Z,14.60
2018-06-24T19:57:29.644Z,14.60
2018-06-24T19:59:58.427Z,14.50
2018-06-24T20:02:26.895Z,14.50
2018-06-24T20:04:55.503Z,14.50
2018-06-24T20:07:24.171Z,14.50
2018-06-24T20:09:52.645Z,14.50
2018-06-24T20:12:21.295Z,14.50
2018-06-24T20:14:49.934Z,14.50
2018-06-24T20:17:18.706Z,14.50
2018-06-24T20:19:47.627Z,14.40
2018-06-24T20:22:16.338Z,14.40
2018-06-24T20:24:45.149Z,14.40
2018-06-24T20:27:13.993Z,14.40
2018-06-24T20:29:42.741Z,14.40
2018-06-24T20:32:11.437Z,14.30
2018-06-24T20:34:39.774Z,14.40
2018-06-24T20:37:08.835Z,14.40
2018-06-24T20:39:38.304Z,14.40
2018-06-24T20:42:07.275Z,14.40
2018-06-24T20:44:35.801Z,14.30
2018-06-24T20:47:07.054Z,14.30
2018-06-24T20:49:35.452Z,14.20
2018-06-24T20:52:05.030Z,14.20
2018-06-24T20:54:33.432Z,14.20
2018-06-24T20:57:01.839Z,14.20
2018-06-24T20:59:30.738Z,14.20
2018-06-24T21:02:00.072Z,14.20
2018-06-24T21:04:28.564Z,14.20
2018-06-24T21:06:57.748Z,14.20
2018-06-24T21:09:27.130Z,14.20
2018-06-24T21:11:55.610Z,14.20
2018-06-24T21:14:24.795Z,14.20
2018-06-24T21:16:53.164Z,14.20
2018-06-24T21:19:22.985Z,14.20
2018-06-24T21:21:51.465Z,14.20
2018-06-24T21:24:24.038Z,14.20
2018-06-24T21:26:53.119Z,14.20
2018-06-24T21:29:21.517Z,14.20
2018-06-24T21:31:50.486Z,14.20
2018-06-24T21:34:19.786Z,14.20
2018-06-24T21:36:49.216Z,14.20
2018-06-24T21:39:18.778Z,14.20
2018-06-24T21:41:47.773Z,14.20
2018-06-24T21:44:16.244Z,14.10
2018-06-24T21:46:44.664Z,14.10
2018-06-24T21:49:13.124Z,14.10
2018-06-24T21:51:42.018Z,14.10
2018-06-24T21:54:10.734Z,14.10
2018-06-24T21:56:39.290Z,14.10
2018-06-24T21:59:07.877Z,14.10
2018-06-24T22:01:36.690Z,14.10
2018-06-24T22:04:05.085Z,14.10
2018-06-24T22:06:34.139Z,14.10
2018-06-24T22:09:02.551Z,14.10
2018-06-24T22:11:31.352Z,14.10
2018-06-24T22:13:59.749Z,14.10
2018-06-24T22:16:28.399Z,14.00
2018-06-24T22:18:56.942Z,14.00
2018-06-24T22:21:25.486Z,14.00
2018-06-24T22:23:54.211Z,14.00
2018-06-24T22:26:22.575Z,13.90
2018-06-24T22:28:51.077Z,13.90
2018-06-24T22:31:19.813Z,13.90
2018-06-24T22:33:48.270Z,13.90
2018-06-24T22:36:16.751Z,13.90
2018-06-24T22:38:45.208Z,13.90
2018-06-24T22:41:15.512Z,13.90
2018-06-24T22:43:44.645Z,13.90
2018-06-24T22:46:15.574Z,13.90
2018-06-24T22:48:44.656Z,13.90
2018-06-24T22:51:13.190Z,13.90
2018-06-24T22:53:44.943Z,13.90
2018-06-24T22:56:14.463Z,13.90
2018-06-24T22:58:49.145Z,13.90
2018-06-24T23:01:18.742Z,13.90
2018-06-24T23:03:47.195Z,13.90
2018-06-24T23:06:16.218Z,13.90
2018-06-24T23:08:45.183Z,13.90
2018-06-24T23:11:14.606Z,13.80
2018-06-24T23:13:49.387Z,13.80
2018-06-24T23:16:18.649Z,13.80
2018-06-24T23:18:48.523Z,13.80
2018-06-24T23:21:19.838Z,13.80
2018-06-24T23:23:49.205Z,13.80
2018-06-24T23:26:19.257Z,13.80
2018-06-24T23:28:48.607Z,13.80
2018-06-24T23:31:18.406Z,13.80
2018-06-24T23:33:47.713Z,13.70
2018-06-24T23:36:16.387Z,13.70
2018-06-24T23:38:45.661Z,13.70
2018-06-24T23:41:14.826Z,13.60
2018-06-24T23:43:43.332Z,13.60
2018-06-24T23:46:12.687Z,13.50
2018-06-24T23:48:42.271Z,13.50
2018-06-24T23:51:13.053Z,13.40
2018-06-24T23:53:44.490Z,13.40
2018-06-24T23:56:14.982Z,13.30
2018-06-24T23:58:44.676Z,13.30
